Аэропорт: Гянджа. Гянджа

ICAO: UBBG

METAR:
2019-09-21 16:00:00
UBBG 211600Z 29028KT 9999 SCT040CB BKN083 18/05 Q1011 R30/CLRD// TEMPO -TSRA
METAR:
2019-09-21 11:02:00
TAF COR UBBG 211102Z 2112/2212 29026KT 9999 FEW050 SCT100 TX27/2112Z TN16/2202Z TEMPO 2112/2118 31030G40KT -TSRA SCT030CB BKN060 BECMG 2120/2122 29016KT